createdAt,value
2019-01-05T00:02:27.263Z,31.27
2019-01-05T00:05:21.560Z,31.50
2019-01-05T00:08:08.836Z,30.13
2019-01-05T00:10:57.159Z,31.93
2019-01-05T00:13:42.080Z,29.53
2019-01-05T00:16:37.115Z,27.17
2019-01-05T00:19:28.219Z,30.93
2019-01-05T00:22:15.455Z,32.87
2019-01-05T00:25:13.004Z,30.97
2019-01-05T00:28:00.099Z,30.50
2019-01-05T00:30:47.433Z,34.50
2019-01-05T00:33:39.235Z,30.00
2019-01-05T00:36:30.436Z,32.80
2019-01-05T00:39:37.298Z,29.60
2019-01-05T00:42:27.153Z,33.83
2019-01-05T00:45:34.252Z,30.13
2019-01-05T00:48:25.529Z,28.93
2019-01-05T00:51:14.327Z,26.87
2019-01-05T00:54:15.171Z,29.53
2019-01-05T00:57:07.831Z,30.70
2019-01-05T01:00:05.007Z,23.00
2019-01-05T01:02:52.366Z,30.47
2019-01-05T01:05:43.138Z,32.20
2019-01-05T01:08:30.301Z,31.90
2019-01-05T01:11:17.790Z,30.97
2019-01-05T01:14:09.399Z,41.10
2019-01-05T01:16:57.083Z,34.07
2019-01-05T01:19:56.414Z,37.90
2019-01-05T01:22:40.380Z,41.50
2019-01-05T01:25:27.720Z,31.80
2019-01-05T01:28:16.232Z,33.77
2019-01-05T01:31:07.031Z,53.87
2019-01-05T01:33:54.361Z,34.43
2019-01-05T01:36:51.895Z,29.77
2019-01-05T01:39:48.761Z,31.40
2019-01-05T01:42:43.527Z,30.00
2019-01-05T01:45:41.253Z,33.73
2019-01-05T01:48:32.425Z,34.70
2019-01-05T01:51:24.107Z,29.23
2019-01-05T01:54:12.304Z,32.93
2019-01-05T01:57:02.227Z,29.93
2019-01-05T02:00:05.987Z,34.87
2019-01-05T02:02:49.769Z,32.90
2019-01-05T02:05:39.418Z,27.70
2019-01-05T02:08:38.051Z,29.17
2019-01-05T02:11:29.977Z,29.53
2019-01-05T02:14:18.161Z,31.23
2019-01-05T02:17:23.020Z,28.57
2019-01-05T02:20:33.449Z,27.57
2019-01-05T02:23:55.824Z,31.83
2019-01-05T02:27:13.780Z,34.53
2019-01-05T02:30:16.585Z,26.33
2019-01-05T02:33:45.390Z,33.27
2019-01-05T02:37:08.149Z,26.90
2019-01-05T02:40:04.983Z,33.27
2019-01-05T02:43:21.353Z,29.80
2019-01-05T02:46:29.485Z,34.17
2019-01-05T02:49:49.039Z,30.80
2019-01-05T02:52:53.383Z,30.60
2019-01-05T02:56:16.422Z,33.00
2019-01-05T02:59:21.602Z,25.60
2019-01-05T03:02:30.067Z,28.53
2019-01-05T03:05:36.779Z,25.73
2019-01-05T03:08:51.623Z,27.67
2019-01-05T03:11:48.493Z,24.33
2019-01-05T03:14:55.924Z,23.87
2019-01-05T03:18:01.303Z,25.37
2019-01-05T03:21:06.558Z,28.53
2019-01-05T03:24:18.572Z,25.17
2019-01-05T03:27:29.059Z,26.50
2019-01-05T03:30:48.804Z,21.00
2019-01-05T03:34:13.923Z,27.40
2019-01-05T03:37:21.793Z,23.87
2019-01-05T03:40:28.005Z,25.30
2019-01-05T03:43:43.996Z,31.43
2019-01-05T03:47:02.228Z,27.47
2019-01-05T03:50:04.952Z,27.43
2019-01-05T03:52:58.056Z,25.73
2019-01-05T03:55:56.057Z,27.43
2019-01-05T03:59:10.842Z,24.97
2019-01-05T04:02:30.270Z,22.03
2019-01-05T04:05:31.691Z,29.40
2019-01-05T04:08:18.647Z,29.60
2019-01-05T04:11:18.801Z,28.13
2019-01-05T04:14:13.104Z,29.67
2019-01-05T04:17:50.937Z,29.60
2019-01-05T04:20:54.975Z,28.23
2019-01-05T04:24:16.623Z,30.00
2019-01-05T04:27:36.130Z,25.13
2019-01-05T04:30:53.056Z,25.33
2019-01-05T04:33:59.397Z,25.00
2019-01-05T04:37:18.652Z,27.23
2019-01-05T04:40:41.185Z,26.60
2019-01-05T04:44:03.591Z,26.63
2019-01-05T04:47:01.214Z,25.73
2019-01-05T04:50:00.855Z,30.80
2019-01-05T04:53:11.283Z,30.00
2019-01-05T04:56:17.035Z,30.70
2019-01-05T04:59:36.107Z,28.83
2019-01-05T05:02:58.287Z,28.00
2019-01-05T05:06:02.463Z,25.83
2019-01-05T05:09:33.713Z,29.27
2019-01-05T05:12:55.501Z,28.80
2019-01-05T05:16:29.837Z,27.73
2019-01-05T05:19:35.680Z,27.47
2019-01-05T05:22:51.091Z,25.40
2019-01-05T05:26:10.057Z,28.97
2019-01-05T05:29:16.045Z,30.30
2019-01-05T05:32:14.898Z,37.60
2019-01-05T05:35:28.491Z,39.77
2019-01-05T05:38:37.731Z,34.77
2019-01-05T05:41:43.831Z,35.87
2019-01-05T05:44:41.304Z,29.90
2019-01-05T05:47:50.382Z,27.77
2019-01-05T05:50:56.086Z,28.20
2019-01-05T05:53:59.256Z,29.57
2019-01-05T05:57:14.087Z,30.37
2019-01-05T06:00:22.405Z,31.80
2019-01-05T06:03:32.692Z,26.10
2019-01-05T06:06:48.574Z,29.60
2019-01-05T06:09:55.351Z,21.03
2019-01-05T06:12:55.631Z,21.90
2019-01-05T06:16:09.071Z,24.70
2019-01-05T06:18:59.363Z,24.80
2019-01-05T06:22:21.391Z,24.37
2019-01-05T06:25:32.399Z,21.83
2019-01-05T06:28:41.366Z,22.93
2019-01-05T06:31:46.599Z,25.23
2019-01-05T06:34:42.067Z,24.10
2019-01-05T06:37:36.412Z,23.93
2019-01-05T06:40:47.864Z,29.50
2019-01-05T06:43:55.688Z,30.47
2019-01-05T06:47:01.355Z,30.27
2019-01-05T06:53:52.250Z,30.50
2019-01-05T06:57:05.656Z,33.33
2019-01-05T07:00:24.135Z,35.30
2019-01-05T07:03:32.233Z,31.33
2019-01-05T07:06:36.699Z,26.83
2019-01-05T07:10:01.868Z,30.17
2019-01-05T07:13:05.072Z,29.17
2019-01-05T07:16:20.530Z,27.13
2019-01-05T07:19:36.242Z,26.80
2019-01-05T07:22:33.479Z,26.33
2019-01-05T07:25:38.711Z,22.90
2019-01-05T07:28:51.460Z,24.20
2019-01-05T07:32:16.411Z,29.63
2019-01-05T07:35:22.946Z,26.10
2019-01-05T07:38:31.612Z,26.30
2019-01-05T07:42:00.203Z,28.47
2019-01-05T07:45:28.486Z,29.50
2019-01-05T07:48:37.697Z,26.27
2019-01-05T07:51:43.048Z,25.77
2019-01-05T07:55:07.676Z,27.03
2019-01-05T07:58:09.939Z,25.07
2019-01-05T08:01:23.544Z,30.80
2019-01-05T08:04:36.904Z,24.73
2019-01-05T08:07:51.188Z,24.60
2019-01-05T08:11:17.067Z,30.90
2019-01-05T08:14:21.965Z,27.53
2019-01-05T08:17:30.772Z,28.13
2019-01-05T08:20:42.959Z,24.43
2019-01-05T08:23:53.364Z,28.70
2019-01-05T08:27:18.078Z,29.37
2019-01-05T08:30:40.313Z,25.87
2019-01-05T08:33:54.871Z,20.67
2019-01-05T08:36:55.618Z,21.20
2019-01-05T08:40:18.985Z,17.47
2019-01-05T08:43:26.455Z,21.23
2019-01-05T08:46:36.232Z,22.13
2019-01-05T08:49:42.183Z,22.97
2019-01-05T08:52:44.124Z,24.83
2019-01-05T08:55:56.211Z,30.00
2019-01-05T08:59:00.428Z,25.70
2019-01-05T09:02:21.646Z,25.00
2019-01-05T09:05:27.649Z,23.60
2019-01-05T09:08:25.988Z,24.93
2019-01-05T09:11:45.166Z,27.73
2019-01-05T09:14:47.276Z,34.80
2019-01-05T09:17:46.107Z,32.10
2019-01-05T09:20:51.325Z,31.30
2019-01-05T09:24:10.109Z,31.23
2019-01-05T09:27:37.968Z,30.83
2019-01-05T09:30:33.631Z,29.63
2019-01-05T09:33:46.186Z,33.63
2019-01-05T09:36:56.720Z,25.03
2019-01-05T09:40:03.891Z,25.57
2019-01-05T09:43:13.176Z,27.73
2019-01-05T09:46:08.910Z,18.43
2019-01-05T09:49:10.259Z,24.33
2019-01-05T09:52:19.684Z,26.13
2019-01-05T09:55:22.278Z,23.43
2019-01-05T09:58:30.988Z,27.03
2019-01-05T10:01:51.680Z,24.37
2019-01-05T10:04:48.623Z,27.43
2019-01-05T10:07:54.881Z,23.77
2019-01-05T10:11:10.409Z,21.53
2019-01-05T10:14:28.994Z,30.20
2019-01-05T10:17:24.443Z,24.90
2019-01-05T10:20:39.191Z,21.40
2019-01-05T10:24:06.180Z,25.17
2019-01-05T10:27:27.612Z,26.07
2019-01-05T10:30:44.708Z,31.87
2019-01-05T10:33:56.619Z,25.80
2019-01-05T10:37:05.606Z,30.40
2019-01-05T10:40:24.641Z,31.27
2019-01-05T10:43:41.892Z,29.13
2019-01-05T10:46:47.108Z,30.73
2019-01-05T10:49:49.879Z,24.07
2019-01-05T10:53:20.916Z,26.40
2019-01-05T10:56:36.346Z,28.10
2019-01-05T10:59:40.504Z,33.90
2019-01-05T11:02:40.722Z,26.77
2019-01-05T11:05:49.643Z,26.90
2019-01-05T11:09:22.521Z,30.00
2019-01-05T11:12:44.268Z,33.03
2019-01-05T11:16:03.221Z,31.23
2019-01-05T11:19:22.848Z,28.70
2019-01-05T11:22:36.471Z,27.53
2019-01-05T11:26:01.255Z,27.53
2019-01-05T11:29:17.315Z,29.70
2019-01-05T11:32:38.577Z,29.33
2019-01-05T11:35:41.709Z,32.73
2019-01-05T11:39:16.637Z,28.17
2019-01-05T11:42:21.635Z,29.23
2019-01-05T11:45:46.076Z,28.50
2019-01-05T11:48:51.295Z,33.57
2019-01-05T11:51:52.456Z,27.83
2019-01-05T11:55:15.306Z,25.80
2019-01-05T11:58:19.494Z,29.73
2019-01-05T12:01:28.589Z,28.60
2019-01-05T12:04:25.775Z,30.90
2019-01-05T12:07:31.125Z,32.67
2019-01-05T12:10:46.675Z,31.43
2019-01-05T12:14:04.433Z,29.50
2019-01-05T12:17:16.316Z,27.57
2019-01-05T12:20:19.760Z,28.20
2019-01-05T12:23:44.597Z,22.40
2019-01-05T12:26:41.511Z,24.53
2019-01-05T12:29:49.122Z,27.73
2019-01-05T12:32:46.974Z,27.47
2019-01-05T12:35:54.392Z,24.57
2019-01-05T12:38:59.320Z,25.17
2019-01-05T12:42:04.384Z,28.43
2019-01-05T12:45:24.763Z,24.23
2019-01-05T12:48:47.251Z,24.33
2019-01-05T12:52:02.688Z,21.47
2019-01-05T12:55:26.225Z,23.97
2019-01-05T12:58:32.191Z,22.83
2019-01-05T13:01:33.520Z,22.90
2019-01-05T13:04:44.033Z,26.37
2019-01-05T13:07:57.260Z,25.83
2019-01-05T13:11:02.391Z,23.10
2019-01-05T13:14:17.110Z,24.90
2019-01-05T13:17:34.989Z,21.57
2019-01-05T13:20:51.093Z,22.80
2019-01-05T13:23:58.710Z,25.37
2019-01-05T13:27:07.954Z,24.73
2019-01-05T13:30:10.740Z,23.23
2019-01-05T13:33:15.512Z,26.47
2019-01-05T13:36:27.939Z,23.97
2019-01-05T13:39:30.611Z,22.53
2019-01-05T13:42:40.589Z,19.80
2019-01-05T13:46:02.349Z,25.37
2019-01-05T13:49:16.177Z,19.33
2019-01-05T13:52:18.825Z,18.40
2019-01-05T13:55:04.547Z,22.60
2019-01-05T13:57:52.142Z,19.10
2019-01-05T14:00:31.373Z,19.33
2019-01-05T14:03:18.703Z,14.10
2019-01-05T14:06:13.591Z,12.73
2019-01-05T14:09:00.572Z,11.13
2019-01-05T14:11:47.420Z,15.07
2019-01-05T14:14:35.619Z,9.40
2019-01-05T14:17:40.455Z,14.17
2019-01-05T14:20:28.200Z,13.83
2019-01-05T14:23:16.719Z,12.20
2019-01-05T14:26:04.951Z,11.37
2019-01-05T14:28:52.393Z,11.50
2019-01-05T14:31:39.415Z,10.90
2019-01-05T14:34:24.843Z,11.27
2019-01-05T14:37:07.803Z,11.90
2019-01-05T14:40:02.321Z,10.33
2019-01-05T14:42:49.286Z,11.80
2019-01-05T14:45:32.531Z,12.17
2019-01-05T14:48:19.571Z,9.27
2019-01-05T14:51:16.776Z,10.33
2019-01-05T14:54:04.027Z,12.00
2019-01-05T14:56:51.520Z,10.60
2019-01-05T14:59:45.479Z,12.47
2019-01-05T15:02:32.503Z,14.43
2019-01-05T15:05:23.708Z,18.40
2019-01-05T15:08:10.836Z,22.10
2019-01-05T15:10:58.349Z,18.97
2019-01-05T15:13:55.432Z,19.73
2019-01-05T15:16:42.746Z,26.07
2019-01-05T15:19:27.407Z,27.17
2019-01-05T15:22:10.312Z,26.57
2019-01-05T15:24:55.227Z,23.33
2019-01-05T15:28:01.999Z,20.50
2019-01-05T15:30:49.079Z,18.60
2019-01-05T15:33:42.545Z,23.00
2019-01-05T15:36:34.204Z,23.07
2019-01-05T15:39:41.937Z,18.50
2019-01-05T15:42:29.301Z,23.13
2019-01-05T15:45:18.090Z,20.63
2019-01-05T15:48:18.987Z,18.03
2019-01-05T15:51:06.281Z,17.07
2019-01-05T15:53:56.811Z,20.37
2019-01-05T15:56:44.140Z,26.33
2019-01-05T15:59:36.471Z,19.83
2019-01-05T16:02:34.187Z,19.83
2019-01-05T16:05:28.360Z,20.03
2019-01-05T16:08:15.354Z,17.00
2019-01-05T16:11:05.127Z,16.70
2019-01-05T16:13:52.358Z,22.20
2019-01-05T16:16:40.739Z,18.43
2019-01-05T16:19:30.767Z,13.27
2019-01-05T16:22:18.035Z,10.63
2019-01-05T16:25:04.927Z,14.10
2019-01-05T16:28:01.400Z,13.87
2019-01-05T16:30:57.360Z,14.90
2019-01-05T16:33:44.609Z,21.33
2019-01-05T16:36:36.516Z,16.57
2019-01-05T16:39:31.715Z,18.30
2019-01-05T16:42:35.276Z,15.87
2019-01-05T16:45:23.667Z,16.20
2019-01-05T16:48:10.651Z,18.40
2019-01-05T16:51:11.087Z,17.90
2019-01-05T16:54:11.211Z,18.57
2019-01-05T16:57:13.351Z,12.67
2019-01-05T17:00:04.440Z,17.60
2019-01-05T17:02:52.785Z,14.67
2019-01-05T17:05:43.984Z,21.70
2019-01-05T17:08:35.846Z,18.83
2019-01-05T17:11:42.514Z,19.73
2019-01-05T17:14:30.081Z,19.10
2019-01-05T17:17:27.331Z,15.00
2019-01-05T17:20:08.217Z,13.63
2019-01-05T17:22:56.802Z,14.80
2019-01-05T17:26:00.208Z,9.10
2019-01-05T17:28:52.116Z,11.47
2019-01-05T17:31:55.916Z,13.43
2019-01-05T17:34:43.161Z,11.07
2019-01-05T17:37:35.060Z,10.67
2019-01-05T17:40:35.736Z,10.63
2019-01-05T17:43:22.867Z,8.70
2019-01-05T17:46:16.984Z,8.57
2019-01-05T17:49:23.686Z,11.20
2019-01-05T17:52:10.512Z,7.90
2019-01-05T17:54:57.419Z,8.87
2019-01-05T17:57:48.906Z,9.00
2019-01-05T18:00:43.088Z,5.97
2019-01-05T18:03:30.185Z,8.20
2019-01-05T18:06:33.787Z,7.17
2019-01-05T18:09:37.464Z,11.17
2019-01-05T18:12:24.883Z,9.90
2019-01-05T18:15:22.199Z,7.77
2019-01-05T18:18:13.192Z,18.47
2019-01-05T18:21:02.875Z,9.67
2019-01-05T18:23:50.161Z,8.90
2019-01-05T18:26:48.475Z,11.17
2019-01-05T18:29:35.637Z,8.80
2019-01-05T18:32:22.690Z,11.00
2019-01-05T18:35:16.885Z,9.00
2019-01-05T18:38:09.656Z,13.60
2019-01-05T18:40:56.246Z,10.00
2019-01-05T18:43:43.220Z,13.27
2019-01-05T18:46:46.576Z,12.20
2019-01-05T18:49:35.106Z,14.43
2019-01-05T18:52:38.672Z,14.30
2019-01-05T18:55:45.633Z,15.17
2019-01-05T18:58:32.898Z,11.20
2019-01-05T19:01:36.454Z,10.70
2019-01-05T19:04:23.763Z,12.00
2019-01-05T19:07:12.225Z,14.70
2019-01-05T19:09:57.177Z,11.93
2019-01-05T19:12:56.747Z,11.03
2019-01-05T19:15:48.169Z,10.47
2019-01-05T19:18:34.834Z,12.07
2019-01-05T19:21:21.636Z,10.80
2019-01-05T19:24:06.479Z,11.33
2019-01-05T19:26:54.083Z,11.67
2019-01-05T19:29:48.810Z,10.77
2019-01-05T19:32:40.023Z,13.33
2019-01-05T19:35:37.411Z,13.17
2019-01-05T19:38:35.620Z,12.40
2019-01-05T19:41:42.122Z,9.00
2019-01-05T19:44:45.785Z,13.90
2019-01-05T19:47:37.166Z,11.80
2019-01-05T19:50:40.454Z,9.83
2019-01-05T19:53:38.315Z,10.60
2019-01-05T19:59:33.119Z,8.80
2019-01-05T20:02:33.500Z,9.13
2019-01-05T20:05:43.723Z,11.33
2019-01-05T20:08:30.786Z,10.97
2019-01-05T20:11:15.381Z,10.20
2019-01-05T20:14:04.115Z,8.13
2019-01-05T20:16:51.214Z,10.00
2019-01-05T20:19:45.736Z,9.37
2019-01-05T20:22:34.019Z,7.70
2019-01-05T20:25:31.701Z,8.43
2019-01-05T20:28:17.957Z,9.07
2019-01-05T20:31:12.482Z,9.23
2019-01-05T20:34:00.687Z,10.67
2019-01-05T20:37:01.213Z,10.70
2019-01-05T20:39:47.183Z,9.53
2019-01-05T20:42:34.611Z,8.57
2019-01-05T20:45:22.400Z,9.00
2019-01-05T20:48:10.759Z,8.13
2019-01-05T20:51:01.636Z,8.87
2019-01-05T20:54:01.890Z,9.23
2019-01-05T20:56:54.208Z,7.90
2019-01-05T20:59:41.101Z,8.80
2019-01-05T21:02:29.185Z,9.53
2019-01-05T21:05:16.160Z,10.50
2019-01-05T21:08:16.799Z,20.73
2019-01-05T21:11:03.506Z,16.70
2019-01-05T21:13:53.095Z,11.20
2019-01-05T21:16:42.174Z,11.53
2019-01-05T21:19:29.239Z,9.53
2019-01-05T21:22:20.892Z,10.23
2019-01-05T21:25:24.535Z,9.17
2019-01-05T21:28:30.627Z,10.20
2019-01-05T21:31:28.040Z,7.90
2019-01-05T21:34:14.211Z,11.70
2019-01-05T21:37:01.243Z,13.93
2019-01-05T21:39:55.975Z,13.97
2019-01-05T21:42:56.667Z,11.63
2019-01-05T21:45:47.795Z,14.70
2019-01-05T21:48:48.409Z,15.60
2019-01-05T21:51:32.200Z,13.87
2019-01-05T21:54:23.724Z,17.20
2019-01-05T21:57:15.075Z,15.87
2019-01-05T22:00:02.378Z,13.70
2019-01-05T22:03:02.763Z,13.10
2019-01-05T22:05:51.061Z,14.90
2019-01-05T22:08:37.961Z,12.57
2019-01-05T22:11:38.349Z,13.13
2019-01-05T22:14:24.407Z,13.90
2019-01-05T22:17:03.002Z,10.23
2019-01-05T22:19:50.127Z,14.20
2019-01-05T22:22:37.099Z,13.13
2019-01-05T22:25:24.018Z,12.77
2019-01-05T22:28:24.338Z,10.20
2019-01-05T22:31:24.643Z,8.80
2019-01-05T22:34:12.100Z,11.50
2019-01-05T22:36:59.109Z,9.77
2019-01-05T22:39:59.415Z,11.00
2019-01-05T22:43:02.798Z,13.20
2019-01-05T22:45:46.803Z,13.50
2019-01-05T22:48:40.991Z,13.80
2019-01-05T22:51:38.503Z,11.63
2019-01-05T22:54:27.714Z,14.77
2019-01-05T22:57:14.576Z,12.37
2019-01-05T23:00:08.766Z,9.90
2019-01-05T23:02:57.009Z,11.83
2019-01-05T23:05:38.076Z,12.70
2019-01-05T23:08:39.415Z,10.43
2019-01-05T23:11:26.228Z,10.23
2019-01-05T23:14:13.056Z,9.50
2019-01-05T23:17:01.362Z,10.67
2019-01-05T23:19:56.089Z,10.67
2019-01-05T23:22:40.451Z,11.10
2019-01-05T23:25:28.742Z,9.03
2019-01-05T23:28:20.463Z,10.37
2019-01-05T23:31:02.872Z,13.77
2019-01-05T23:33:49.558Z,11.90
2019-01-05T23:36:36.836Z,8.90
2019-01-05T23:39:37.594Z,10.10
2019-01-05T23:42:24.575Z,10.07
2019-01-05T23:45:18.445Z,11.63
2019-01-05T23:48:14.361Z,8.43
2019-01-05T23:51:11.846Z,9.23
2019-01-05T23:54:00.059Z,14.30
2019-01-05T23:56:47.128Z,11.90
2019-01-05T23:59:38.480Z,10.60
